createdAt,value
2022-08-17T00:01:55.485Z,99977.00
2022-08-17T00:06:56.954Z,99969.00
2022-08-17T00:18:00.891Z,99969.00
2022-08-17T00:23:01.048Z,99967.00
2022-08-17T00:28:01.606Z,99965.00
2022-08-17T00:33:23.404Z,99967.00
2022-08-17T00:38:05.969Z,99967.00
2022-08-17T00:43:05.980Z,99965.00
2022-08-17T00:48:05.982Z,99959.00
2022-08-17T00:53:08.573Z,99958.00
2022-08-17T00:58:08.928Z,99952.00
2022-08-17T01:03:09.027Z,99950.00
2022-08-17T01:08:08.939Z,99952.00
2022-08-17T01:13:08.921Z,99952.00
2022-08-17T01:18:09.522Z,99952.00
2022-08-17T01:23:10.012Z,99952.00
2022-08-17T01:28:12.008Z,99954.00
2022-08-17T01:33:14.075Z,99954.00
2022-08-17T01:38:14.130Z,99958.00
2022-08-17T01:43:14.056Z,99956.00
2022-08-17T01:48:14.011Z,99956.00
2022-08-17T01:53:14.028Z,99959.00
2022-08-17T01:58:14.062Z,99961.00
2022-08-17T02:03:13.994Z,99959.00
2022-08-17T02:08:19.779Z,99965.00
2022-08-17T02:13:16.041Z,99965.00
2022-08-17T02:18:16.065Z,99961.00
2022-08-17T02:23:16.082Z,99961.00
2022-08-17T02:28:16.066Z,99963.00
2022-08-17T02:33:16.053Z,99963.00
2022-08-17T02:38:16.975Z,99959.00
2022-08-17T02:43:18.447Z,99958.00
2022-08-17T02:48:30.965Z,99956.00
2022-08-17T02:53:20.082Z,99954.00
2022-08-17T02:58:29.596Z,99950.00
2022-08-17T03:03:22.067Z,99950.00
2022-08-17T03:08:25.017Z,99952.00
2022-08-17T03:13:25.158Z,99950.00
2022-08-17T03:18:26.327Z,99950.00
2022-08-17T03:23:27.341Z,99946.00
2022-08-17T03:28:28.301Z,99948.00
2022-08-17T03:33:28.289Z,99948.00
2022-08-17T03:38:28.082Z,99950.00
2022-08-17T03:43:30.158Z,99946.00
2022-08-17T03:48:48.259Z,99944.00
2022-08-17T03:54:05.874Z,99946.00
2022-08-17T03:59:08.069Z,99948.00
2022-08-17T04:04:10.349Z,99950.00
2022-08-17T04:09:10.108Z,99954.00
2022-08-17T04:14:10.110Z,99958.00
2022-08-17T04:19:10.147Z,99959.00
2022-08-17T04:24:10.201Z,99961.00
2022-08-17T04:29:10.209Z,99969.00
2022-08-17T04:34:10.134Z,99973.00
2022-08-17T04:39:10.180Z,99981.00
2022-08-17T04:44:11.231Z,99979.00
2022-08-17T04:49:11.169Z,99981.00
2022-08-17T04:54:11.248Z,99981.00
2022-08-17T04:59:11.259Z,99977.00
2022-08-17T05:04:21.108Z,99975.00
2022-08-17T05:09:13.182Z,99979.00
2022-08-17T05:14:13.198Z,99981.00
2022-08-17T05:19:13.132Z,99985.00
2022-08-17T05:24:38.520Z,99983.00
2022-08-17T05:29:15.259Z,99979.00
2022-08-17T05:34:16.384Z,99979.00
2022-08-17T05:39:17.419Z,99981.00
2022-08-17T05:44:17.189Z,99975.00
2022-08-17T05:49:17.565Z,99973.00
2022-08-17T05:54:17.176Z,99977.00
2022-08-17T05:59:17.298Z,99977.00
2022-08-17T06:04:17.335Z,99973.00
2022-08-17T06:09:22.810Z,99969.00
2022-08-17T06:14:19.178Z,99961.00
2022-08-17T06:19:19.241Z,99983.00
2022-08-17T06:24:19.215Z,99997.00
2022-08-17T06:29:19.334Z,100012.00
2022-08-17T06:34:21.238Z,100029.00
2022-08-17T06:39:21.281Z,100029.00
2022-08-17T06:44:49.983Z,100044.00
2022-08-17T06:49:25.204Z,100044.00
2022-08-17T06:54:25.232Z,100050.00
2022-08-17T06:59:25.867Z,100058.00
2022-08-17T07:04:28.218Z,100060.00
2022-08-17T07:09:28.403Z,100068.00
2022-08-17T07:14:28.361Z,100074.00
2022-08-17T07:19:28.635Z,100078.00
2022-08-17T07:24:29.530Z,100078.00
2022-08-17T07:29:32.254Z,100082.00
2022-08-17T07:34:32.321Z,100078.00
2022-08-17T07:39:32.402Z,100078.00
2022-08-17T07:44:32.280Z,100078.00
2022-08-17T07:49:32.277Z,100080.00
2022-08-17T07:54:32.564Z,100076.00
2022-08-17T07:59:33.481Z,100084.00
2022-08-17T08:04:59.589Z,100089.00
2022-08-17T08:09:38.662Z,100099.00
2022-08-17T08:14:39.256Z,100109.00
2022-08-17T08:19:39.397Z,100109.00
2022-08-17T08:24:39.741Z,100107.00
2022-08-17T08:29:40.429Z,100105.00
2022-08-17T08:34:58.622Z,100111.00
2022-08-17T08:39:43.416Z,100115.00
2022-08-17T08:45:00.245Z,100115.00
2022-08-17T08:50:03.413Z,100117.00
2022-08-17T08:54:48.958Z,100111.00
2022-08-17T08:59:58.350Z,100107.00
2022-08-17T09:05:13.490Z,100101.00
2022-08-17T09:09:59.016Z,100099.00
2022-08-17T09:14:56.379Z,100101.00
2022-08-17T09:19:56.637Z,100101.00
2022-08-17T09:24:56.732Z,100101.00
2022-08-17T09:29:57.529Z,100105.00
2022-08-17T09:34:59.361Z,100109.00
2022-08-17T09:39:59.895Z,100111.00
2022-08-17T09:45:00.380Z,100115.00
2022-08-17T09:50:00.416Z,100119.00
2022-08-17T09:55:00.576Z,100123.00
2022-08-17T10:00:00.430Z,100131.00
2022-08-17T10:05:00.413Z,100138.00
2022-08-17T10:10:00.500Z,100146.00
2022-08-17T10:15:07.676Z,100148.00
2022-08-17T10:20:02.492Z,100144.00
2022-08-17T10:25:54.294Z,100144.00
2022-08-17T10:30:39.446Z,100140.00
2022-08-17T10:35:39.442Z,100131.00
2022-08-17T10:40:39.488Z,100127.00
2022-08-17T10:45:39.404Z,100131.00
2022-08-17T10:50:39.446Z,100125.00
2022-08-17T10:55:41.188Z,100123.00
2022-08-17T11:00:42.162Z,100113.00
2022-08-17T11:05:44.014Z,100115.00
2022-08-17T11:10:46.465Z,100123.00
2022-08-17T11:15:47.042Z,100133.00
2022-08-17T11:20:47.569Z,100137.00
2022-08-17T11:25:47.492Z,100138.00
2022-08-17T11:30:48.582Z,100142.00
2022-08-17T11:35:48.668Z,100140.00
2022-08-17T11:40:48.512Z,100138.00
2022-08-17T11:45:48.568Z,100137.00
2022-08-17T11:51:06.774Z,100137.00
2022-08-17T11:56:07.658Z,100133.00
2022-08-17T12:01:07.685Z,100127.00
2022-08-17T12:06:07.537Z,100135.00
2022-08-17T12:11:07.573Z,100135.00
2022-08-17T12:16:09.414Z,100138.00
2022-08-17T12:21:11.503Z,100137.00
2022-08-17T12:26:11.578Z,100135.00
2022-08-17T12:31:11.583Z,100131.00
2022-08-17T12:36:12.152Z,100125.00
2022-08-17T12:41:27.901Z,100119.00
2022-08-17T12:46:27.577Z,100117.00
2022-08-17T12:51:28.552Z,100119.00
2022-08-17T12:56:29.528Z,100121.00
2022-08-17T13:01:29.766Z,100117.00
2022-08-17T13:06:29.794Z,100119.00
2022-08-17T13:11:29.652Z,100121.00
2022-08-17T13:16:29.920Z,100127.00
2022-08-17T13:21:30.205Z,100125.00
2022-08-17T13:26:30.647Z,100129.00
2022-08-17T13:31:31.948Z,100127.00
2022-08-17T13:36:32.994Z,100129.00
2022-08-17T13:41:34.253Z,100131.00
2022-08-17T13:46:34.675Z,100135.00
2022-08-17T13:51:34.811Z,100135.00
2022-08-17T13:56:37.865Z,100135.00
2022-08-17T14:01:36.908Z,100135.00
2022-08-17T14:06:52.251Z,100138.00
2022-08-17T14:11:38.621Z,100140.00
2022-08-17T14:16:40.924Z,100135.00
2022-08-17T14:21:41.851Z,100135.00
2022-08-17T14:26:41.744Z,100123.00
2022-08-17T14:31:41.735Z,100121.00
2022-08-17T14:36:48.360Z,100125.00
2022-08-17T14:41:44.685Z,100123.00
2022-08-17T14:46:44.682Z,100121.00
2022-08-17T14:51:44.914Z,100119.00
2022-08-17T14:56:46.637Z,100117.00
2022-08-17T15:01:48.795Z,100117.00
2022-08-17T15:06:48.806Z,100113.00
2022-08-17T15:11:50.847Z,100107.00
2022-08-17T15:16:50.778Z,100107.00
2022-08-17T15:21:50.750Z,100105.00
2022-08-17T15:26:51.183Z,100099.00
2022-08-17T15:31:51.741Z,100095.00
2022-08-17T15:36:52.069Z,100089.00
2022-08-17T15:41:58.564Z,100082.00
2022-08-17T15:46:55.802Z,100082.00
2022-08-17T15:51:55.729Z,100086.00
2022-08-17T15:56:55.761Z,100086.00
2022-08-17T16:03:13.529Z,100084.00
2022-08-17T16:06:58.285Z,100087.00
2022-08-17T16:11:58.911Z,100095.00
2022-08-17T16:16:59.098Z,100103.00
2022-08-17T16:21:58.808Z,100111.00
2022-08-17T16:26:58.750Z,100111.00
2022-08-17T16:31:59.042Z,100115.00
2022-08-17T16:36:58.912Z,100119.00
2022-08-17T16:41:59.893Z,100121.00
2022-08-17T16:47:00.561Z,100121.00
2022-08-17T16:52:01.243Z,100121.00
2022-08-17T16:57:05.308Z,100115.00
2022-08-17T17:02:09.733Z,100119.00
2022-08-17T17:07:09.773Z,100113.00
2022-08-17T17:12:11.786Z,100113.00
2022-08-17T17:17:11.803Z,100119.00
2022-08-17T17:22:11.853Z,100121.00
2022-08-17T17:27:11.760Z,100125.00
2022-08-17T17:32:13.651Z,100133.00
2022-08-17T17:37:15.838Z,100133.00
2022-08-17T17:42:16.606Z,100140.00
2022-08-17T17:47:17.845Z,100144.00
2022-08-17T17:52:19.441Z,100148.00
2022-08-17T17:57:20.913Z,100160.00
2022-08-17T18:02:22.967Z,100168.00
2022-08-17T18:07:22.918Z,100162.00
2022-08-17T18:12:32.947Z,100160.00
2022-08-17T18:17:33.762Z,100160.00
2022-08-17T18:22:33.854Z,100152.00
2022-08-17T18:27:33.944Z,100156.00
2022-08-17T18:32:34.077Z,100160.00
2022-08-17T18:37:33.888Z,100168.00
2022-08-17T18:42:33.899Z,100176.00
2022-08-17T18:47:33.852Z,100184.00
2022-08-17T18:52:33.856Z,100191.00
2022-08-17T18:57:34.556Z,100199.00
2022-08-17T19:02:45.074Z,100213.00
2022-08-17T19:07:37.265Z,100221.00
2022-08-17T19:12:36.937Z,100225.00
2022-08-17T19:17:36.908Z,100232.00
2022-08-17T19:22:36.888Z,100232.00
2022-08-17T19:27:43.678Z,100236.00
2022-08-17T19:32:39.502Z,100236.00
2022-08-17T19:37:40.101Z,100238.00
2022-08-17T19:42:44.820Z,100234.00
2022-08-17T19:47:55.950Z,100236.00
2022-08-17T19:52:52.244Z,100234.00
2022-08-17T19:57:54.915Z,100244.00
2022-08-17T20:02:54.975Z,100248.00
2022-08-17T20:07:55.104Z,100254.00
2022-08-17T20:12:54.967Z,100252.00
2022-08-17T20:17:54.967Z,100254.00
2022-08-17T20:22:55.023Z,100252.00
2022-08-17T20:27:55.151Z,100252.00
2022-08-17T20:32:56.998Z,100256.00
2022-08-17T20:37:57.392Z,100262.00
2022-08-17T20:42:58.010Z,100262.00
2022-08-17T20:48:21.586Z,100268.00
2022-08-17T20:52:59.921Z,100272.00
2022-08-17T20:58:00.985Z,100274.00
2022-08-17T21:03:01.003Z,100276.00
2022-08-17T21:08:00.953Z,100276.00
2022-08-17T21:13:01.010Z,100286.00
2022-08-17T21:18:00.937Z,100286.00
2022-08-17T21:23:01.055Z,100286.00
2022-08-17T21:28:00.974Z,100278.00
2022-08-17T21:33:01.122Z,100278.00
2022-08-17T21:38:02.176Z,100278.00
2022-08-17T21:43:02.115Z,100288.00
2022-08-17T21:48:01.986Z,100292.00
2022-08-17T21:53:02.369Z,100296.00
2022-08-17T21:58:13.807Z,100300.00
2022-08-17T22:03:04.212Z,100304.00
2022-08-17T22:08:05.938Z,100311.00
2022-08-17T22:13:06.103Z,100315.00
2022-08-17T22:18:11.429Z,100321.00
2022-08-17T22:23:29.271Z,100327.00
2022-08-17T22:28:29.156Z,100317.00
2022-08-17T22:33:29.243Z,100311.00
2022-08-17T22:38:29.133Z,100311.00
2022-08-17T22:43:29.374Z,100313.00
2022-08-17T22:48:29.002Z,100317.00
2022-08-17T22:53:47.473Z,100315.00
2022-08-17T22:59:06.280Z,100317.00
2022-08-17T23:04:06.212Z,100325.00
2022-08-17T23:09:06.512Z,100327.00
2022-08-17T23:14:07.834Z,100331.00
2022-08-17T23:19:09.461Z,100335.00
2022-08-17T23:24:09.039Z,100337.00
2022-08-17T23:29:09.040Z,100337.00
2022-08-17T23:34:09.322Z,100341.00
2022-08-17T23:39:09.077Z,100343.00
2022-08-17T23:44:09.062Z,100347.00
2022-08-17T23:49:09.052Z,100347.00
2022-08-17T23:54:11.147Z,100355.00
2022-08-17T23:59:12.535Z,100357.00
